createdAt,value
2022-09-20T00:01:10.631Z,97930.72
2022-09-20T00:03:47.304Z,97925.03
2022-09-20T00:06:23.945Z,97926.38
2022-09-20T00:08:54.707Z,97925.78
2022-09-20T00:11:27.057Z,97934.22
2022-09-20T00:14:00.124Z,97935.84
2022-09-20T00:16:34.102Z,97937.50
2022-09-20T00:19:06.846Z,97930.59
2022-09-20T00:21:39.736Z,97930.28
2022-09-20T00:24:10.171Z,97932.19
2022-09-20T00:26:42.603Z,97940.78
2022-09-20T00:29:12.830Z,97936.34
2022-09-20T00:31:43.247Z,97933.09
2022-09-20T00:34:26.608Z,97932.69
2022-09-20T00:36:59.322Z,97939.28
2022-09-20T00:39:29.720Z,97935.28
2022-09-20T00:41:59.867Z,97940.16
2022-09-20T00:44:52.813Z,97943.47
2022-09-20T00:47:31.641Z,97940.50
2022-09-20T00:50:15.480Z,97936.22
2022-09-20T00:52:51.624Z,97941.47
2022-09-20T00:55:23.392Z,97932.16
2022-09-20T00:57:54.019Z,97941.66
2022-09-20T01:00:24.403Z,97935.28
2022-09-20T01:03:01.017Z,97936.81
2022-09-20T01:05:31.334Z,97940.78
2022-09-20T01:08:05.015Z,97936.47
2022-09-20T01:10:35.738Z,97935.84
2022-09-20T01:13:06.046Z,97931.09
2022-09-20T01:15:40.445Z,97935.13
2022-09-20T01:18:12.580Z,97932.50
2022-09-20T01:20:45.674Z,97942.81
2022-09-20T01:23:34.582Z,97932.97
2022-09-20T01:26:31.196Z,97930.63
2022-09-20T01:29:13.386Z,97938.16
2022-09-20T01:31:51.060Z,97931.91
2022-09-20T01:34:28.368Z,97930.19
2022-09-20T01:37:09.456Z,97931.56
2022-09-20T01:39:43.382Z,97938.03
2022-09-20T01:42:16.456Z,97941.13
2022-09-20T01:45:03.912Z,97935.13
2022-09-20T01:47:42.568Z,97932.19
2022-09-20T01:50:26.084Z,97935.28
2022-09-20T01:53:54.179Z,97930.97
2022-09-20T01:57:17.840Z,97928.72
2022-09-20T02:00:15.178Z,97930.44
2022-09-20T02:03:49.024Z,97943.16
2022-09-20T02:06:46.552Z,97933.59
2022-09-20T02:10:00.607Z,97945.47
2022-09-20T02:12:55.914Z,97942.69
2022-09-20T02:15:58.350Z,97940.22
2022-09-20T02:18:50.989Z,97947.19
2022-09-20T02:21:33.330Z,97951.78
2022-09-20T02:24:18.346Z,97949.75
2022-09-20T02:27:05.406Z,97948.69
2022-09-20T02:29:46.885Z,97947.19
2022-09-20T02:32:34.894Z,97952.41
2022-09-20T02:35:31.334Z,97953.38
2022-09-20T02:38:13.322Z,97956.81
2022-09-20T02:41:04.599Z,97963.88
2022-09-20T02:43:43.908Z,97962.34
2022-09-20T02:46:23.433Z,97964.53
2022-09-20T02:49:05.695Z,97964.78
2022-09-20T02:51:43.980Z,97968.19
2022-09-20T02:54:33.008Z,97961.44
2022-09-20T02:57:11.612Z,97968.66
2022-09-20T02:59:50.326Z,97966.84
2022-09-20T03:02:30.642Z,97965.63
2022-09-20T03:05:15.255Z,97959.75
2022-09-20T03:08:03.660Z,97964.97
2022-09-20T03:10:42.391Z,97969.75
2022-09-20T03:13:26.442Z,97968.66
2022-09-20T03:16:07.317Z,97970.50
2022-09-20T03:18:49.853Z,97967.28
2022-09-20T03:21:40.960Z,97984.63
2022-09-20T03:24:27.536Z,97975.09
2022-09-20T03:27:08.216Z,97978.06
2022-09-20T03:29:59.585Z,97975.78
2022-09-20T03:32:50.934Z,97982.88
2022-09-20T03:35:34.623Z,97979.59
2022-09-20T03:38:25.755Z,97989.91
2022-09-20T03:41:24.143Z,97990.41
2022-09-20T03:44:23.424Z,97990.69
2022-09-20T03:47:00.995Z,97986.69
2022-09-20T03:50:16.036Z,97980.09
2022-09-20T03:53:23.158Z,97986.69
2022-09-20T03:56:22.520Z,97987.75
2022-09-20T03:59:14.282Z,97992.34
2022-09-20T04:02:21.141Z,97996.53
2022-09-20T04:04:56.759Z,97996.69
2022-09-20T04:07:38.503Z,97996.53
2022-09-20T04:10:33.148Z,98000.06
2022-09-20T04:13:20.682Z,97995.78
2022-09-20T04:16:09.489Z,97992.72
2022-09-20T04:18:47.401Z,98003.34
2022-09-20T04:21:25.075Z,97995.81
2022-09-20T04:24:03.664Z,98001.47
2022-09-20T04:26:43.900Z,97999.19
2022-09-20T04:29:34.330Z,98004.56
2022-09-20T04:32:17.429Z,98008.88
2022-09-20T04:35:04.467Z,98005.81
2022-09-20T04:37:38.579Z,98010.44
2022-09-20T04:40:21.781Z,98009.19
2022-09-20T04:44:11.835Z,98019.19
2022-09-20T04:47:28.733Z,98008.28
2022-09-20T04:50:47.856Z,98011.50
2022-09-20T04:53:46.490Z,98011.81
2022-09-20T04:56:24.528Z,98014.41
2022-09-20T04:59:25.207Z,98016.72
2022-09-20T05:02:42.593Z,98021.31
2022-09-20T05:05:55.291Z,98015.78
2022-09-20T05:09:07.207Z,98018.41
2022-09-20T05:12:26.004Z,98016.72
2022-09-20T05:15:34.303Z,98023.78
2022-09-20T05:18:55.758Z,98031.50
2022-09-20T05:21:47.893Z,98026.59
2022-09-20T05:24:59.142Z,98029.03
2022-09-20T05:27:44.482Z,98030.41
2022-09-20T05:30:29.787Z,98037.00
2022-09-20T05:33:13.338Z,98034.22
2022-09-20T05:35:51.953Z,98039.78
2022-09-20T05:38:33.808Z,98045.03
2022-09-20T05:41:15.812Z,98035.81
2022-09-20T05:43:56.950Z,98045.47
2022-09-20T05:46:37.747Z,98039.03
2022-09-20T05:49:20.323Z,98045.94
2022-09-20T05:52:36.346Z,98045.34
2022-09-20T05:55:33.717Z,98059.34
2022-09-20T05:58:25.413Z,98058.41
2022-09-20T06:01:02.787Z,98062.84
2022-09-20T06:03:44.260Z,98060.25
2022-09-20T06:06:27.104Z,98056.72
2022-09-20T06:09:37.487Z,98060.69
2022-09-20T06:12:27.472Z,98063.47
2022-09-20T06:15:06.111Z,98063.44
2022-09-20T06:17:43.920Z,98061.09
2022-09-20T06:20:28.352Z,98071.75
2022-09-20T06:23:02.039Z,98070.66
2022-09-20T06:25:42.994Z,98068.03
2022-09-20T06:28:21.237Z,98073.09
2022-09-20T06:30:53.688Z,98073.09
2022-09-20T06:33:26.044Z,98077.25
2022-09-20T06:36:25.702Z,98074.13
2022-09-20T06:39:15.138Z,98080.16
2022-09-20T06:41:46.283Z,98072.56
2022-09-20T06:44:16.328Z,98073.47
2022-09-20T06:46:46.374Z,98076.53
2022-09-20T06:49:16.428Z,98083.63
2022-09-20T06:51:50.330Z,98081.06
2022-09-20T06:54:23.714Z,98087.50
2022-09-20T06:56:54.894Z,98090.41
2022-09-20T06:59:24.957Z,98084.88
2022-09-20T07:01:54.965Z,98089.97
2022-09-20T07:04:27.100Z,98101.84
2022-09-20T07:07:09.432Z,98100.63
2022-09-20T07:09:39.932Z,98094.75
2022-09-20T07:12:12.491Z,98102.44
2022-09-20T07:14:43.154Z,98111.66
2022-09-20T07:17:14.054Z,98103.75
2022-09-20T07:19:45.780Z,98103.13
2022-09-20T07:22:18.647Z,98111.28
2022-09-20T07:24:51.477Z,98110.06
2022-09-20T07:27:21.929Z,98098.22
2022-09-20T07:29:52.019Z,98111.94
2022-09-20T07:32:22.064Z,98115.63
2022-09-20T07:34:52.109Z,98117.19
2022-09-20T07:37:24.811Z,98121.34
2022-09-20T07:39:55.003Z,98126.81
2022-09-20T07:42:25.044Z,98126.91
2022-09-20T07:44:55.912Z,98128.06
2022-09-20T07:47:26.693Z,98128.50
2022-09-20T07:49:58.941Z,98130.63
2022-09-20T07:52:32.311Z,98130.09
2022-09-20T07:55:02.366Z,98131.53
2022-09-20T07:57:32.388Z,98135.41
2022-09-20T08:00:02.562Z,98143.72
2022-09-20T08:02:42.524Z,98145.28
2022-09-20T08:05:12.653Z,98147.19
2022-09-20T08:07:45.262Z,98150.41
2022-09-20T08:10:15.379Z,98158.84
2022-09-20T08:15:35.566Z,98153.06
2022-09-20T08:18:05.818Z,98158.38
2022-09-20T08:20:42.702Z,98155.34
2022-09-20T08:23:23.492Z,98152.19
2022-09-20T08:25:54.251Z,98152.97
2022-09-20T08:28:24.252Z,98156.78
2022-09-20T08:30:54.573Z,98161.22
2022-09-20T08:33:27.268Z,98151.75
2022-09-20T08:35:59.143Z,98145.56
2022-09-20T08:41:33.395Z,98149.94
2022-09-20T08:44:07.220Z,98153.34
2022-09-20T08:46:42.954Z,98159.41
2022-09-20T08:49:22.503Z,98154.63
2022-09-20T08:51:53.680Z,98158.91
2022-09-20T08:54:32.109Z,98161.22
2022-09-20T08:57:08.094Z,98158.66
2022-09-20T08:59:38.403Z,98160.75
2022-09-20T09:02:19.962Z,98170.63
2022-09-20T09:04:53.841Z,98166.34
2022-09-20T09:07:27.178Z,98171.84
2022-09-20T09:10:03.163Z,98172.75
2022-09-20T09:12:37.913Z,98174.44
2022-09-20T09:15:27.464Z,98174.75
2022-09-20T09:17:58.188Z,98170.63
2022-09-20T09:20:29.316Z,98168.34
2022-09-20T09:23:05.589Z,98173.31
2022-09-20T09:25:42.027Z,98174.28
2022-09-20T09:28:17.740Z,98176.41
2022-09-20T09:30:49.594Z,98179.53
2022-09-20T09:33:29.157Z,98177.38
2022-09-20T09:36:02.219Z,98186.47
2022-09-20T09:38:35.940Z,98176.84
2022-09-20T09:41:25.437Z,98180.03
2022-09-20T09:44:05.123Z,98185.19
2022-09-20T09:46:38.335Z,98182.59
2022-09-20T09:49:12.999Z,98183.94
2022-09-20T09:51:45.231Z,98183.88
2022-09-20T09:54:21.197Z,98180.19
2022-09-20T09:57:08.466Z,98191.50
2022-09-20T10:00:02.756Z,98186.34
2022-09-20T10:03:03.911Z,98186.16
2022-09-20T10:05:39.914Z,98183.16
2022-09-20T10:08:29.015Z,98190.53
2022-09-20T10:11:15.220Z,98186.44
2022-09-20T10:14:05.665Z,98186.06
2022-09-20T10:17:05.147Z,98192.69
2022-09-20T10:19:53.803Z,98188.34
2022-09-20T10:22:37.156Z,98183.81
2022-09-20T10:25:24.076Z,98183.22
2022-09-20T10:28:13.318Z,98175.53
2022-09-20T10:30:58.466Z,98170.34
2022-09-20T10:33:39.462Z,98172.88
2022-09-20T10:36:20.791Z,98167.03
2022-09-20T10:39:01.635Z,98175.41
2022-09-20T10:42:12.703Z,98174.28
2022-09-20T10:45:02.478Z,98186.13
2022-09-20T10:47:42.153Z,98182.88
2022-09-20T10:50:29.794Z,98183.66
2022-09-20T10:53:24.436Z,98194.00
2022-09-20T10:56:09.674Z,98192.25
2022-09-20T10:59:17.392Z,98187.69
2022-09-20T11:02:05.927Z,98190.09
2022-09-20T11:05:06.335Z,98194.06
2022-09-20T11:07:56.586Z,98193.19
2022-09-20T11:10:33.536Z,98183.50
2022-09-20T11:13:11.177Z,98180.75
2022-09-20T11:15:48.495Z,98180.69
2022-09-20T11:18:25.949Z,98185.81
2022-09-20T11:21:10.726Z,98196.47
2022-09-20T11:23:52.918Z,98203.72
2022-09-20T11:26:31.804Z,98203.59
2022-09-20T11:29:11.428Z,98200.78
2022-09-20T11:31:46.464Z,98206.63
2022-09-20T11:34:25.777Z,98203.03
2022-09-20T11:37:01.542Z,98202.72
2022-09-20T11:39:38.961Z,98196.50
2022-09-20T11:42:15.345Z,98206.50
2022-09-20T11:44:46.059Z,98203.75
2022-09-20T11:47:50.076Z,98206.41
2022-09-20T11:51:07.982Z,98206.38
2022-09-20T11:54:16.185Z,98205.44
2022-09-20T11:56:54.060Z,98206.53
2022-09-20T11:59:36.820Z,98207.06
2022-09-20T12:02:18.236Z,98190.56
2022-09-20T12:04:53.505Z,98188.28
2022-09-20T12:07:30.175Z,98181.50
2022-09-20T12:10:08.411Z,98175.25
2022-09-20T12:12:44.206Z,98181.09
2022-09-20T12:15:29.434Z,98172.94
2022-09-20T12:18:34.521Z,98172.50
2022-09-20T12:21:18.805Z,98164.19
2022-09-20T12:24:22.365Z,98173.47
2022-09-20T12:26:59.442Z,98163.09
2022-09-20T12:30:09.262Z,98174.75
2022-09-20T12:33:01.173Z,98175.91
2022-09-20T12:36:19.097Z,98177.66
2022-09-20T12:39:08.226Z,98176.53
2022-09-20T12:41:57.408Z,98177.47
2022-09-20T12:44:36.200Z,98179.06
2022-09-20T12:47:11.169Z,98178.56
2022-09-20T12:50:06.709Z,98183.03
2022-09-20T12:52:57.336Z,98173.69
2022-09-20T12:55:57.771Z,98165.59
2022-09-20T12:58:45.273Z,98157.59
2022-09-20T13:01:47.357Z,98171.69
2022-09-20T13:04:58.994Z,98166.16
2022-09-20T13:07:51.082Z,98176.56
2022-09-20T13:10:32.054Z,98175.34
2022-09-20T13:13:14.114Z,98170.25
2022-09-20T13:15:53.538Z,98178.00
2022-09-20T13:18:25.632Z,98177.91
2022-09-20T13:21:02.794Z,98179.56
2022-09-20T13:23:35.019Z,98181.31
2022-09-20T13:26:05.618Z,98178.78
2022-09-20T13:28:41.139Z,98174.38
2022-09-20T13:31:31.098Z,98177.38
2022-09-20T13:34:26.569Z,98176.00
2022-09-20T13:37:00.968Z,98172.59
2022-09-20T13:39:42.536Z,98171.84
2022-09-20T13:42:19.850Z,98170.28
2022-09-20T13:44:51.093Z,98173.72
2022-09-20T13:47:32.758Z,98180.63
2022-09-20T13:50:13.278Z,98175.16
2022-09-20T13:52:50.314Z,98169.88
2022-09-20T13:55:39.978Z,98170.63
2022-09-20T13:58:20.334Z,98167.59
2022-09-20T14:00:55.947Z,98170.88
2022-09-20T14:03:30.705Z,98166.06
2022-09-20T14:06:04.240Z,98171.50
2022-09-20T14:08:38.154Z,98175.78
2022-09-20T14:11:11.299Z,98166.19
2022-09-20T14:13:44.680Z,98169.31
2022-09-20T14:16:15.973Z,98168.34
2022-09-20T14:18:51.491Z,98169.22
2022-09-20T14:21:30.714Z,98175.56
2022-09-20T14:24:03.652Z,98170.97
2022-09-20T14:26:36.423Z,98175.13
2022-09-20T14:29:30.858Z,98177.53
2022-09-20T14:32:07.394Z,98168.59
2022-09-20T14:34:43.513Z,98179.41
2022-09-20T14:37:20.886Z,98177.47
2022-09-20T14:39:54.105Z,98182.19
2022-09-20T14:42:37.893Z,98179.34
2022-09-20T14:45:25.143Z,98176.53
2022-09-20T14:48:10.860Z,98175.19
2022-09-20T14:50:47.405Z,98184.69
2022-09-20T14:53:31.979Z,98180.22
2022-09-20T14:56:13.082Z,98177.56
2022-09-20T14:59:22.164Z,98178.50
2022-09-20T15:02:07.357Z,98180.41
2022-09-20T15:04:39.049Z,98177.28
2022-09-20T15:07:13.717Z,98173.88
2022-09-20T15:09:43.980Z,98175.56
2022-09-20T15:12:21.506Z,98176.38
2022-09-20T15:14:52.107Z,98175.69
2022-09-20T15:17:24.281Z,98183.88
2022-09-20T15:19:54.386Z,98174.38
2022-09-20T15:22:27.610Z,98175.50
2022-09-20T15:24:57.724Z,98176.72
2022-09-20T15:27:28.567Z,98182.06
2022-09-20T15:30:01.706Z,98194.56
2022-09-20T15:32:31.884Z,98196.06
2022-09-20T15:35:01.890Z,98197.78
2022-09-20T15:37:35.230Z,98197.22
2022-09-20T15:40:06.883Z,98198.28
2022-09-20T15:42:41.678Z,98196.38
2022-09-20T15:45:16.064Z,98206.03
2022-09-20T15:47:47.834Z,98204.28
2022-09-20T15:50:18.447Z,98204.72
2022-09-20T15:52:51.511Z,98211.09
2022-09-20T15:55:22.671Z,98218.22
2022-09-20T15:57:58.083Z,98216.16
2022-09-20T16:00:28.166Z,98218.59
2022-09-20T16:02:58.468Z,98217.00
2022-09-20T16:05:28.705Z,98227.06
2022-09-20T16:08:01.508Z,98227.00
2022-09-20T16:10:32.808Z,98235.00
2022-09-20T16:13:04.129Z,98236.13
2022-09-20T16:15:34.387Z,98234.00
2022-09-20T16:18:19.776Z,98242.53
2022-09-20T16:20:49.950Z,98250.19
2022-09-20T16:23:26.006Z,98247.78
2022-09-20T16:25:58.103Z,98255.50
2022-09-20T16:28:30.797Z,98256.81
2022-09-20T16:31:01.149Z,98255.50
2022-09-20T16:33:33.087Z,98257.97
2022-09-20T16:36:03.344Z,98257.31
2022-09-20T16:38:39.005Z,98264.59
2022-09-20T16:41:09.122Z,98264.72
2022-09-20T16:43:39.530Z,98267.56
2022-09-20T16:46:10.511Z,98279.59
2022-09-20T16:48:40.910Z,98275.13
2022-09-20T16:51:11.052Z,98283.31
2022-09-20T16:53:43.769Z,98282.94
2022-09-20T16:56:21.681Z,98287.09
2022-09-20T16:58:52.272Z,98290.75
2022-09-20T17:01:23.215Z,98294.28
2022-09-20T17:03:53.106Z,98306.28
2022-09-20T17:06:23.654Z,98309.72
2022-09-20T17:08:59.306Z,98310.72
2022-09-20T17:11:32.291Z,98318.09
2022-09-20T17:14:02.718Z,98325.06
2022-09-20T17:16:36.775Z,98319.41
2022-09-20T17:19:09.784Z,98324.84
2022-09-20T17:21:43.496Z,98333.09
2022-09-20T17:24:16.602Z,98333.47
2022-09-20T17:26:49.035Z,98338.16
2022-09-20T17:29:21.111Z,98332.97
2022-09-20T17:31:59.620Z,98343.00
2022-09-20T17:34:31.943Z,98341.19
2022-09-20T17:37:03.566Z,98346.44
2022-09-20T17:39:36.626Z,98347.69
2022-09-20T17:42:07.301Z,98345.38
2022-09-20T17:44:38.128Z,98357.75
2022-09-20T17:47:13.357Z,98350.81
2022-09-20T17:49:45.184Z,98363.94
2022-09-20T17:52:16.416Z,98368.56
2022-09-20T17:54:49.326Z,98371.13
2022-09-20T17:57:19.976Z,98370.22
2022-09-20T17:59:50.281Z,98369.34
2022-09-20T18:02:20.727Z,98369.44
2022-09-20T18:04:53.555Z,98383.56
2022-09-20T18:07:26.746Z,98380.03
2022-09-20T18:09:59.432Z,98385.44
2022-09-20T18:12:29.767Z,98392.78
2022-09-20T18:14:59.963Z,98386.66
2022-09-20T18:17:30.260Z,98391.09
2022-09-20T18:20:00.319Z,98398.25
2022-09-20T18:22:30.490Z,98401.66
2022-09-20T18:25:03.468Z,98407.34
2022-09-20T18:27:34.172Z,98409.41
2022-09-20T18:30:06.773Z,98415.09
2022-09-20T18:32:37.120Z,98415.53
2022-09-20T18:35:09.629Z,98412.81
2022-09-20T18:37:39.807Z,98416.81
2022-09-20T18:40:16.022Z,98425.75
2022-09-20T18:42:46.118Z,98425.44
2022-09-20T18:45:20.193Z,98425.28
2022-09-20T18:47:51.826Z,98428.81
2022-09-20T18:50:22.173Z,98430.66
2022-09-20T18:52:52.934Z,98433.75
2022-09-20T18:55:26.480Z,98439.13
2022-09-20T18:58:01.349Z,98435.28
2022-09-20T19:00:32.893Z,98449.16
2022-09-20T19:03:10.425Z,98450.25
2022-09-20T19:05:46.595Z,98453.78
2022-09-20T19:08:34.285Z,98456.84
2022-09-20T19:11:14.969Z,98452.84
2022-09-20T19:13:53.409Z,98459.50
2022-09-20T19:16:27.060Z,98460.56
2022-09-20T19:19:26.769Z,98466.28
2022-09-20T19:22:17.309Z,98463.03
2022-09-20T19:25:07.059Z,98463.81
2022-09-20T19:27:42.340Z,98466.88
2022-09-20T19:30:17.515Z,98469.22
2022-09-20T19:32:48.631Z,98471.34
2022-09-20T19:35:25.260Z,98471.97
2022-09-20T19:38:15.536Z,98474.47
2022-09-20T19:40:54.865Z,98477.84
2022-09-20T19:43:47.739Z,98478.00
2022-09-20T19:46:37.858Z,98471.06
2022-09-20T19:49:17.181Z,98481.38
2022-09-20T19:51:48.482Z,98485.72
2022-09-20T19:54:21.428Z,98482.94
2022-09-20T19:56:59.510Z,98487.56
2022-09-20T19:59:33.558Z,98485.56
2022-09-20T20:02:08.064Z,98488.50
2022-09-20T20:04:39.177Z,98483.09
2022-09-20T20:07:16.664Z,98488.66
2022-09-20T20:09:54.936Z,98491.09
2022-09-20T20:12:34.087Z,98493.84
2022-09-20T20:15:22.566Z,98495.56
2022-09-20T20:18:01.857Z,98497.91
2022-09-20T20:20:38.567Z,98500.66
2022-09-20T20:23:46.378Z,98502.50
2022-09-20T20:26:23.488Z,98497.28
2022-09-20T20:28:54.948Z,98500.03
2022-09-20T20:31:28.685Z,98511.28
2022-09-20T20:33:59.202Z,98513.94
2022-09-20T20:36:29.453Z,98515.28
2022-09-20T20:38:59.668Z,98511.28
2022-09-20T20:41:31.942Z,98513.78
2022-09-20T20:44:06.021Z,98513.59
2022-09-20T20:46:41.521Z,98514.38
2022-09-20T20:49:11.832Z,98520.09
2022-09-20T20:51:41.990Z,98531.34
2022-09-20T20:54:12.980Z,98524.88
2022-09-20T20:56:43.064Z,98535.66
2022-09-20T20:59:15.953Z,98537.97
2022-09-20T21:01:49.369Z,98541.84
2022-09-20T21:04:20.427Z,98537.06
2022-09-20T21:06:50.932Z,98537.97
2022-09-20T21:09:20.990Z,98535.97
2022-09-20T21:11:53.980Z,98534.91
2022-09-20T21:14:26.478Z,98536.75
2022-09-20T21:16:59.321Z,98533.34
2022-09-20T21:19:29.767Z,98542.91
2022-09-20T21:21:59.916Z,98532.13
2022-09-20T21:24:30.062Z,98535.50
2022-09-20T21:27:00.082Z,98534.91
2022-09-20T21:29:32.745Z,98535.50
2022-09-20T21:32:07.227Z,98542.16
2022-09-20T21:34:37.404Z,98543.22
2022-09-20T21:37:07.722Z,98544.28
2022-09-20T21:39:37.930Z,98539.53
2022-09-20T21:42:08.916Z,98544.59
2022-09-20T21:44:43.214Z,98537.94
2022-09-20T21:47:20.824Z,98545.78
2022-09-20T21:49:50.994Z,98550.28
2022-09-20T21:52:21.121Z,98548.28
2022-09-20T21:54:52.095Z,98542.84
2022-09-20T21:57:21.909Z,98547.78
2022-09-20T21:59:52.289Z,98543.47
2022-09-20T22:02:27.356Z,98556.72
2022-09-20T22:05:01.290Z,98551.00
2022-09-20T22:07:33.398Z,98552.28
2022-09-20T22:10:07.436Z,98554.75
2022-09-20T22:12:39.290Z,98556.75
2022-09-20T22:15:11.872Z,98567.69
2022-09-20T22:17:46.033Z,98571.56
2022-09-20T22:20:16.575Z,98582.66
2022-09-20T22:22:49.591Z,98571.56
2022-09-20T22:25:21.034Z,98575.13
2022-09-20T22:27:55.213Z,98566.63
2022-09-20T22:30:27.337Z,98567.53
2022-09-20T22:33:00.053Z,98568.16
2022-09-20T22:35:33.501Z,98570.59
2022-09-20T22:38:10.090Z,98573.53
2022-09-20T22:40:40.248Z,98578.00
2022-09-20T22:43:10.290Z,98576.75
2022-09-20T22:45:40.348Z,98580.47
2022-09-20T22:48:12.998Z,98589.13
2022-09-20T22:50:51.205Z,98591.16
2022-09-20T22:53:21.427Z,98594.84
2022-09-20T22:55:53.083Z,98592.09
2022-09-20T22:58:25.766Z,98594.53
2022-09-20T23:00:57.624Z,98595.63
2022-09-20T23:03:30.606Z,98591.47
2022-09-20T23:06:00.839Z,98590.69
2022-09-20T23:08:32.083Z,98602.13
2022-09-20T23:11:08.065Z,98600.88
2022-09-20T23:13:43.893Z,98593.16
2022-09-20T23:16:17.254Z,98595.00
2022-09-20T23:18:52.465Z,98584.50
2022-09-20T23:21:25.583Z,98582.28
2022-09-20T23:23:57.675Z,98584.03
2022-09-20T23:26:39.630Z,98583.19
2022-09-20T23:29:15.900Z,98577.44
2022-09-20T23:32:02.084Z,98576.47
2022-09-20T23:34:40.571Z,98572.13
2022-09-20T23:37:11.002Z,98585.97
2022-09-20T23:39:41.491Z,98586.31
2022-09-20T23:42:17.139Z,98578.56
2022-09-20T23:44:50.336Z,98581.34
2022-09-20T23:47:20.483Z,98579.50
2022-09-20T23:49:54.424Z,98577.34
2022-09-20T23:52:28.145Z,98588.81
2022-09-20T23:54:58.225Z,98587.41
2022-09-20T23:57:34.609Z,98590.13
